sensor_id;sensor_type;location;lat;lon;timestamp;P1;durP1;ratioP1;P2;durP2;ratioP2
18899;SDS011;9582;52.018;6.306;2023-09-12T00:00:42;45.85;;;30.70;;
18899;SDS011;9582;52.018;6.306;2023-09-12T00:03:09;38.05;;;28.10;;
18899;SDS011;9582;52.018;6.306;2023-09-12T00:05:35;70.30;;;35.72;;
18899;SDS011;9582;52.018;6.306;2023-09-12T00:08:02;61.05;;;32.85;;
18899;SDS011;9582;52.018;6.306;2023-09-12T00:10:29;75.82;;;35.40;;
18899;SDS011;9582;52.018;6.306;2023-09-12T00:12:56;46.83;;;31.48;;
18899;SDS011;9582;52.018;6.306;2023-09-12T00:15:25;46.97;;;30.25;;
18899;SDS011;9582;52.018;6.306;2023-09-12T00:17:53;50.60;;;32.55;;
18899;SDS011;9582;52.018;6.306;2023-09-12T00:20:20;46.97;;;32.28;;
18899;SDS011;9582;52.018;6.306;2023-09-12T00:22:46;58.30;;;34.55;;
18899;SDS011;9582;52.018;6.306;2023-09-12T00:25:12;73.95;;;35.10;;
18899;SDS011;9582;52.018;6.306;2023-09-12T00:27:39;51.97;;;31.45;;
18899;SDS011;9582;52.018;6.306;2023-09-12T00:30:06;52.70;;;32.47;;
18899;SDS011;9582;52.018;6.306;2023-09-12T00:32:33;54.00;;;33.88;;
18899;SDS011;9582;52.018;6.306;2023-09-12T00:35:00;53.33;;;34.13;;
18899;SDS011;9582;52.018;6.306;2023-09-12T00:37:27;50.92;;;33.35;;
18899;SDS011;9582;52.018;6.306;2023-09-12T00:39:54;48.60;;;32.53;;
18899;SDS011;9582;52.018;6.306;2023-09-12T00:42:20;55.05;;;34.40;;
18899;SDS011;9582;52.018;6.306;2023-09-12T00:44:47;57.03;;;34.50;;
18899;SDS011;9582;52.018;6.306;2023-09-12T00:47:13;54.75;;;34.15;;
18899;SDS011;9582;52.018;6.306;2023-09-12T00:49:40;73.32;;;37.72;;
18899;SDS011;9582;52.018;6.306;2023-09-12T00:52:09;59.38;;;34.42;;
18899;SDS011;9582;52.018;6.306;2023-09-12T00:54:36;70.20;;;35.70;;
18899;SDS011;9582;52.018;6.306;2023-09-12T00:57:03;58.80;;;34.13;;
18899;SDS011;9582;52.018;6.306;2023-09-12T00:59:30;61.65;;;32.33;;
18899;SDS011;9582;52.018;6.306;2023-09-12T01:01:57;61.85;;;34.83;;
18899;SDS011;9582;52.018;6.306;2023-09-12T01:04:24;48.08;;;30.13;;
18899;SDS011;9582;52.018;6.306;2023-09-12T01:06:51;48.58;;;30.77;;
18899;SDS011;9582;52.018;6.306;2023-09-12T01:09:19;53.33;;;30.20;;
18899;SDS011;9582;52.018;6.306;2023-09-12T01:11:45;43.15;;;30.33;;
18899;SDS011;9582;52.018;6.306;2023-09-12T01:14:12;42.60;;;27.92;;
18899;SDS011;9582;52.018;6.306;2023-09-12T01:16:38;46.80;;;27.83;;
18899;SDS011;9582;52.018;6.306;2023-09-12T01:19:05;45.25;;;28.60;;
18899;SDS011;9582;52.018;6.306;2023-09-12T01:21:36;42.70;;;30.08;;
18899;SDS011;9582;52.018;6.306;2023-09-12T01:24:20;44.47;;;29.27;;
18899;SDS011;9582;52.018;6.306;2023-09-12T01:27:22;49.60;;;29.38;;
18899;SDS011;9582;52.018;6.306;2023-09-12T01:29:56;58.25;;;31.75;;
18899;SDS011;9582;52.018;6.306;2023-09-12T01:32:26;53.75;;;31.48;;
18899;SDS011;9582;52.018;6.306;2023-09-12T01:34:55;51.53;;;31.58;;
18899;SDS011;9582;52.018;6.306;2023-09-12T01:37:22;55.97;;;31.60;;
18899;SDS011;9582;52.018;6.306;2023-09-12T01:39:48;56.50;;;33.20;;
18899;SDS011;9582;52.018;6.306;2023-09-12T01:42:16;65.38;;;34.33;;
18899;SDS011;9582;52.018;6.306;2023-09-12T01:44:45;52.40;;;32.28;;
18899;SDS011;9582;52.018;6.306;2023-09-12T01:47:16;56.63;;;33.22;;
18899;SDS011;9582;52.018;6.306;2023-09-12T01:49:45;50.72;;;32.40;;
18899;SDS011;9582;52.018;6.306;2023-09-12T01:52:14;53.63;;;32.35;;
18899;SDS011;9582;52.018;6.306;2023-09-12T01:54:41;52.25;;;31.65;;
18899;SDS011;9582;52.018;6.306;2023-09-12T01:57:09;60.30;;;34.25;;
18899;SDS011;9582;52.018;6.306;2023-09-12T01:59:36;58.50;;;34.03;;
18899;SDS011;9582;52.018;6.306;2023-09-12T02:02:04;51.58;;;31.88;;
18899;SDS011;9582;52.018;6.306;2023-09-12T02:04:32;54.67;;;33.30;;
18899;SDS011;9582;52.018;6.306;2023-09-12T02:06:58;50.88;;;31.52;;
18899;SDS011;9582;52.018;6.306;2023-09-12T02:09:25;47.33;;;29.83;;
18899;SDS011;9582;52.018;6.306;2023-09-12T02:11:51;31.83;;;23.60;;
18899;SDS011;9582;52.018;6.306;2023-09-12T02:14:18;34.28;;;22.63;;
18899;SDS011;9582;52.018;6.306;2023-09-12T02:16:44;34.47;;;23.75;;
18899;SDS011;9582;52.018;6.306;2023-09-12T02:19:12;31.98;;;23.60;;
18899;SDS011;9582;52.018;6.306;2023-09-12T02:21:38;31.48;;;22.15;;
18899;SDS011;9582;52.018;6.306;2023-09-12T02:24:05;32.03;;;22.50;;
18899;SDS011;9582;52.018;6.306;2023-09-12T02:26:32;35.47;;;24.10;;
18899;SDS011;9582;52.018;6.306;2023-09-12T02:29:01;31.00;;;21.52;;
18899;SDS011;9582;52.018;6.306;2023-09-12T02:31:28;28.60;;;20.77;;
18899;SDS011;9582;52.018;6.306;2023-09-12T02:33:55;34.65;;;19.70;;
18899;SDS011;9582;52.018;6.306;2023-09-12T02:36:23;28.45;;;19.65;;
18899;SDS011;9582;52.018;6.306;2023-09-12T02:38:49;34.00;;;21.98;;
18899;SDS011;9582;52.018;6.306;2023-09-12T02:41:16;32.58;;;22.48;;
18899;SDS011;9582;52.018;6.306;2023-09-12T02:43:43;32.70;;;23.38;;
18899;SDS011;9582;52.018;6.306;2023-09-12T02:46:10;50.13;;;29.52;;
18899;SDS011;9582;52.018;6.306;2023-09-12T02:48:36;61.40;;;32.40;;
18899;SDS011;9582;52.018;6.306;2023-09-12T02:51:03;60.20;;;32.05;;
18899;SDS011;9582;52.018;6.306;2023-09-12T02:53:30;42.13;;;28.20;;
18899;SDS011;9582;52.018;6.306;2023-09-12T02:55:57;51.70;;;29.73;;
18899;SDS011;9582;52.018;6.306;2023-09-12T02:58:23;48.75;;;28.70;;
18899;SDS011;9582;52.018;6.306;2023-09-12T03:00:50;51.40;;;31.33;;
18899;SDS011;9582;52.018;6.306;2023-09-12T03:03:19;60.65;;;33.67;;
18899;SDS011;9582;52.018;6.306;2023-09-12T03:05:46;49.58;;;30.70;;
18899;SDS011;9582;52.018;6.306;2023-09-12T03:08:13;48.05;;;29.63;;
18899;SDS011;9582;52.018;6.306;2023-09-12T03:10:40;44.95;;;27.20;;
18899;SDS011;9582;52.018;6.306;2023-09-12T03:13:07;39.53;;;26.13;;
18899;SDS011;9582;52.018;6.306;2023-09-12T03:15:36;42.80;;;25.33;;
18899;SDS011;9582;52.018;6.306;2023-09-12T03:18:04;34.80;;;23.80;;
18899;SDS011;9582;52.018;6.306;2023-09-12T03:20:31;35.60;;;23.30;;
18899;SDS011;9582;52.018;6.306;2023-09-12T03:22:58;28.15;;;19.58;;
18899;SDS011;9582;52.018;6.306;2023-09-12T03:25:24;34.67;;;22.83;;
18899;SDS011;9582;52.018;6.306;2023-09-12T03:27:52;30.17;;;21.70;;
18899;SDS011;9582;52.018;6.306;2023-09-12T03:30:19;38.45;;;24.27;;
18899;SDS011;9582;52.018;6.306;2023-09-12T03:32:46;36.75;;;25.08;;
18899;SDS011;9582;52.018;6.306;2023-09-12T03:35:13;39.53;;;26.80;;
18899;SDS011;9582;52.018;6.306;2023-09-12T03:37:39;50.10;;;27.55;;
18899;SDS011;9582;52.018;6.306;2023-09-12T03:40:08;38.38;;;25.40;;
18899;SDS011;9582;52.018;6.306;2023-09-12T03:42:36;42.10;;;25.75;;
18899;SDS011;9582;52.018;6.306;2023-09-12T03:45:04;45.67;;;27.65;;
18899;SDS011;9582;52.018;6.306;2023-09-12T03:47:32;55.42;;;28.17;;
18899;SDS011;9582;52.018;6.306;2023-09-12T03:49:58;54.42;;;25.42;;
18899;SDS011;9582;52.018;6.306;2023-09-12T03:52:25;46.00;;;26.00;;
18899;SDS011;9582;52.018;6.306;2023-09-12T03:54:52;53.17;;;28.35;;
18899;SDS011;9582;52.018;6.306;2023-09-12T03:57:18;375.45;;;48.13;;
18899;SDS011;9582;52.018;6.306;2023-09-12T03:59:45;536.50;;;56.10;;
18899;SDS011;9582;52.018;6.306;2023-09-12T04:02:13;489.52;;;57.60;;
18899;SDS011;9582;52.018;6.306;2023-09-12T04:04:40;346.17;;;44.35;;
18899;SDS011;9582;52.018;6.306;2023-09-12T04:07:06;73.45;;;24.63;;
18899;SDS011;9582;52.018;6.306;2023-09-12T04:09:33;370.05;;;46.67;;
18899;SDS011;9582;52.018;6.306;2023-09-12T04:12:00;523.72;;;61.58;;
18899;SDS011;9582;52.018;6.306;2023-09-12T04:14:26;334.63;;;45.85;;
18899;SDS011;9582;52.018;6.306;2023-09-12T04:16:53;54.13;;;25.05;;
18899;SDS011;9582;52.018;6.306;2023-09-12T04:19:21;43.28;;;24.95;;
18899;SDS011;9582;52.018;6.306;2023-09-12T04:21:47;55.63;;;25.80;;
18899;SDS011;9582;52.018;6.306;2023-09-12T04:24:14;52.13;;;24.45;;
18899;SDS011;9582;52.018;6.306;2023-09-12T04:26:42;77.80;;;26.10;;
18899;SDS011;9582;52.018;6.306;2023-09-12T04:29:09;37.28;;;22.98;;
18899;SDS011;9582;52.018;6.306;2023-09-12T04:31:36;37.60;;;24.00;;
18899;SDS011;9582;52.018;6.306;2023-09-12T04:34:03;34.33;;;23.40;;
18899;SDS011;9582;52.018;6.306;2023-09-12T04:36:30;34.10;;;23.38;;
18899;SDS011;9582;52.018;6.306;2023-09-12T04:38:57;34.22;;;22.48;;
18899;SDS011;9582;52.018;6.306;2023-09-12T04:41:24;49.22;;;24.67;;
18899;SDS011;9582;52.018;6.306;2023-09-12T04:43:50;60.75;;;25.77;;
18899;SDS011;9582;52.018;6.306;2023-09-12T04:46:17;40.17;;;25.20;;
18899;SDS011;9582;52.018;6.306;2023-09-12T04:48:43;52.00;;;26.88;;
18899;SDS011;9582;52.018;6.306;2023-09-12T04:51:10;34.35;;;22.73;;
18899;SDS011;9582;52.018;6.306;2023-09-12T04:53:38;35.17;;;25.13;;
18899;SDS011;9582;52.018;6.306;2023-09-12T04:56:05;45.78;;;25.63;;
18899;SDS011;9582;52.018;6.306;2023-09-12T04:58:35;58.00;;;28.17;;
18899;SDS011;9582;52.018;6.306;2023-09-12T05:01:01;39.72;;;26.42;;
18899;SDS011;9582;52.018;6.306;2023-09-12T05:03:28;86.65;;;32.88;;
18899;SDS011;9582;52.018;6.306;2023-09-12T05:05:55;63.63;;;30.35;;
18899;SDS011;9582;52.018;6.306;2023-09-12T05:08:22;71.60;;;31.63;;
18899;SDS011;9582;52.018;6.306;2023-09-12T05:10:50;54.10;;;29.27;;
18899;SDS011;9582;52.018;6.306;2023-09-12T05:13:17;49.42;;;29.98;;
18899;SDS011;9582;52.018;6.306;2023-09-12T05:15:44;47.90;;;29.48;;
18899;SDS011;9582;52.018;6.306;2023-09-12T05:18:10;61.25;;;29.15;;
18899;SDS011;9582;52.018;6.306;2023-09-12T05:20:37;50.28;;;28.15;;
18899;SDS011;9582;52.018;6.306;2023-09-12T05:23:03;52.58;;;30.17;;
18899;SDS011;9582;52.018;6.306;2023-09-12T05:25:30;74.47;;;32.97;;
18899;SDS011;9582;52.018;6.306;2023-09-12T05:27:58;141.15;;;38.70;;
18899;SDS011;9582;52.018;6.306;2023-09-12T05:30:24;117.40;;;39.30;;
18899;SDS011;9582;52.018;6.306;2023-09-12T05:32:51;106.22;;;39.45;;
18899;SDS011;9582;52.018;6.306;2023-09-12T05:35:18;111.40;;;40.08;;
18899;SDS011;9582;52.018;6.306;2023-09-12T05:37:45;78.82;;;38.47;;
18899;SDS011;9582;52.018;6.306;2023-09-12T05:40:11;78.05;;;38.17;;
18899;SDS011;9582;52.018;6.306;2023-09-12T05:42:38;101.82;;;41.40;;
18899;SDS011;9582;52.018;6.306;2023-09-12T05:45:06;97.97;;;43.50;;
18899;SDS011;9582;52.018;6.306;2023-09-12T05:47:33;356.67;;;61.63;;
18899;SDS011;9582;52.018;6.306;2023-09-12T05:49:59;93.95;;;41.67;;
18899;SDS011;9582;52.018;6.306;2023-09-12T05:52:26;109.38;;;46.72;;
18899;SDS011;9582;52.018;6.306;2023-09-12T05:54:52;132.27;;;47.15;;
18899;SDS011;9582;52.018;6.306;2023-09-12T05:57:19;168.00;;;49.22;;
18899;SDS011;9582;52.018;6.306;2023-09-12T05:59:46;369.42;;;61.60;;
18899;SDS011;9582;52.018;6.306;2023-09-12T06:02:14;113.30;;;44.13;;
18899;SDS011;9582;52.018;6.306;2023-09-12T06:04:40;155.68;;;48.10;;
18899;SDS011;9582;52.018;6.306;2023-09-12T06:07:07;316.08;;;60.88;;
18899;SDS011;9582;52.018;6.306;2023-09-12T06:09:33;305.35;;;60.13;;
18899;SDS011;9582;52.018;6.306;2023-09-12T06:12:01;311.60;;;62.30;;
18899;SDS011;9582;52.018;6.306;2023-09-12T06:14:28;286.25;;;59.50;;
18899;SDS011;9582;52.018;6.306;2023-09-12T06:16:54;107.95;;;45.67;;
18899;SDS011;9582;52.018;6.306;2023-09-12T06:19:22;282.02;;;57.83;;
18899;SDS011;9582;52.018;6.306;2023-09-12T06:21:50;392.80;;;62.55;;
18899;SDS011;9582;52.018;6.306;2023-09-12T06:24:17;356.23;;;65.22;;
18899;SDS011;9582;52.018;6.306;2023-09-12T06:26:46;232.30;;;54.92;;
18899;SDS011;9582;52.018;6.306;2023-09-12T06:29:12;198.48;;;52.85;;
18899;SDS011;9582;52.018;6.306;2023-09-12T06:31:39;142.95;;;50.40;;
18899;SDS011;9582;52.018;6.306;2023-09-12T06:34:06;111.43;;;46.72;;
18899;SDS011;9582;52.018;6.306;2023-09-12T06:36:34;114.32;;;48.80;;
18899;SDS011;9582;52.018;6.306;2023-09-12T06:39:01;261.25;;;61.05;;
18899;SDS011;9582;52.018;6.306;2023-09-12T06:41:30;218.05;;;56.80;;
18899;SDS011;9582;52.018;6.306;2023-09-12T06:43:56;311.83;;;63.55;;
18899;SDS011;9582;52.018;6.306;2023-09-12T06:46:23;258.50;;;62.45;;
18899;SDS011;9582;52.018;6.306;2023-09-12T06:48:50;210.50;;;56.28;;
18899;SDS011;9582;52.018;6.306;2023-09-12T06:51:17;194.77;;;57.47;;
18899;SDS011;9582;52.018;6.306;2023-09-12T06:53:45;208.27;;;58.03;;
18899;SDS011;9582;52.018;6.306;2023-09-12T06:56:11;416.40;;;74.20;;
18899;SDS011;9582;52.018;6.306;2023-09-12T06:58:38;441.05;;;78.70;;
18899;SDS011;9582;52.018;6.306;2023-09-12T07:01:04;452.38;;;79.70;;
18899;SDS011;9582;52.018;6.306;2023-09-12T07:03:32;317.33;;;68.17;;
18899;SDS011;9582;52.018;6.306;2023-09-12T07:05:59;206.80;;;58.67;;
18899;SDS011;9582;52.018;6.306;2023-09-12T07:08:25;193.88;;;59.28;;
18899;SDS011;9582;52.018;6.306;2023-09-12T07:10:54;200.70;;;61.35;;
18899;SDS011;9582;52.018;6.306;2023-09-12T07:13:21;196.68;;;58.03;;
18899;SDS011;9582;52.018;6.306;2023-09-12T07:15:49;180.50;;;58.50;;
18899;SDS011;9582;52.018;6.306;2023-09-12T07:18:15;185.82;;;59.47;;
18899;SDS011;9582;52.018;6.306;2023-09-12T07:20:42;239.90;;;63.85;;
18899;SDS011;9582;52.018;6.306;2023-09-12T07:23:08;235.88;;;64.65;;
18899;SDS011;9582;52.018;6.306;2023-09-12T07:25:38;196.32;;;61.50;;
18899;SDS011;9582;52.018;6.306;2023-09-12T07:28:07;223.32;;;62.88;;
18899;SDS011;9582;52.018;6.306;2023-09-12T07:30:34;303.55;;;70.45;;
18899;SDS011;9582;52.018;6.306;2023-09-12T07:33:02;208.13;;;65.70;;
18899;SDS011;9582;52.018;6.306;2023-09-12T07:35:28;250.38;;;65.47;;
18899;SDS011;9582;52.018;6.306;2023-09-12T07:37:55;223.23;;;64.78;;
18899;SDS011;9582;52.018;6.306;2023-09-12T07:40:22;248.25;;;66.75;;
18899;SDS011;9582;52.018;6.306;2023-09-12T07:42:47;297.20;;;67.88;;
18899;SDS011;9582;52.018;6.306;2023-09-12T07:45:15;214.10;;;64.10;;
18899;SDS011;9582;52.018;6.306;2023-09-12T07:47:42;226.98;;;63.38;;
18899;SDS011;9582;52.018;6.306;2023-09-12T07:50:08;227.40;;;64.10;;
18899;SDS011;9582;52.018;6.306;2023-09-12T07:52:35;245.13;;;66.80;;
18899;SDS011;9582;52.018;6.306;2023-09-12T07:55:01;162.18;;;57.60;;
18899;SDS011;9582;52.018;6.306;2023-09-12T07:57:29;178.25;;;60.53;;
18899;SDS011;9582;52.018;6.306;2023-09-12T07:59:56;152.93;;;58.45;;
18899;SDS011;9582;52.018;6.306;2023-09-12T08:02:24;192.15;;;66.03;;
18899;SDS011;9582;52.018;6.306;2023-09-12T08:04:50;167.55;;;60.55;;
18899;SDS011;9582;52.018;6.306;2023-09-12T08:07:18;156.10;;;59.63;;
18899;SDS011;9582;52.018;6.306;2023-09-12T08:09:49;138.30;;;56.92;;
18899;SDS011;9582;52.018;6.306;2023-09-12T08:12:16;139.57;;;57.20;;
18899;SDS011;9582;52.018;6.306;2023-09-12T08:14:42;124.68;;;53.95;;
18899;SDS011;9582;52.018;6.306;2023-09-12T08:17:10;152.68;;;58.30;;
18899;SDS011;9582;52.018;6.306;2023-09-12T08:19:38;156.82;;;59.17;;
18899;SDS011;9582;52.018;6.306;2023-09-12T08:22:05;125.18;;;55.28;;
18899;SDS011;9582;52.018;6.306;2023-09-12T08:24:33;140.77;;;58.22;;
18899;SDS011;9582;52.018;6.306;2023-09-12T08:27:00;137.27;;;56.95;;
18899;SDS011;9582;52.018;6.306;2023-09-12T08:29:27;137.43;;;56.85;;
18899;SDS011;9582;52.018;6.306;2023-09-12T08:31:54;109.72;;;54.00;;
18899;SDS011;9582;52.018;6.306;2023-09-12T08:34:21;96.75;;;51.35;;
18899;SDS011;9582;52.018;6.306;2023-09-12T08:36:49;100.25;;;53.25;;
18899;SDS011;9582;52.018;6.306;2023-09-12T08:39:16;108.95;;;53.13;;
18899;SDS011;9582;52.018;6.306;2023-09-12T08:41:44;93.82;;;50.20;;
18899;SDS011;9582;52.018;6.306;2023-09-12T08:44:11;99.05;;;50.15;;
18899;SDS011;9582;52.018;6.306;2023-09-12T08:46:38;99.85;;;52.90;;
18899;SDS011;9582;52.018;6.306;2023-09-12T08:49:06;80.57;;;48.42;;
18899;SDS011;9582;52.018;6.306;2023-09-12T08:51:34;83.75;;;47.97;;
18899;SDS011;9582;52.018;6.306;2023-09-12T08:54:02;73.78;;;44.75;;
18899;SDS011;9582;52.018;6.306;2023-09-12T08:56:30;70.20;;;43.97;;
18899;SDS011;9582;52.018;6.306;2023-09-12T08:58:58;68.75;;;44.20;;
18899;SDS011;9582;52.018;6.306;2023-09-12T09:01:26;69.35;;;45.83;;
18899;SDS011;9582;52.018;6.306;2023-09-12T09:03:53;76.80;;;46.38;;
18899;SDS011;9582;52.018;6.306;2023-09-12T09:06:20;70.30;;;44.95;;
18899;SDS011;9582;52.018;6.306;2023-09-12T09:08:48;76.13;;;46.30;;
18899;SDS011;9582;52.018;6.306;2023-09-12T09:11:17;70.20;;;46.35;;
18899;SDS011;9582;52.018;6.306;2023-09-12T09:13:44;69.80;;;44.15;;
18899;SDS011;9582;52.018;6.306;2023-09-12T09:16:11;65.53;;;42.20;;
18899;SDS011;9582;52.018;6.306;2023-09-12T09:18:49;64.50;;;41.50;;
18899;SDS011;9582;52.018;6.306;2023-09-12T09:21:17;54.55;;;39.53;;
18899;SDS011;9582;52.018;6.306;2023-09-12T09:23:44;52.05;;;37.40;;
18899;SDS011;9582;52.018;6.306;2023-09-12T09:26:11;53.22;;;37.83;;
18899;SDS011;9582;52.018;6.306;2023-09-12T09:28:39;47.70;;;35.78;;
18899;SDS011;9582;52.018;6.306;2023-09-12T09:31:08;52.03;;;36.88;;
18899;SDS011;9582;52.018;6.306;2023-09-12T09:33:36;43.33;;;32.15;;
18899;SDS011;9582;52.018;6.306;2023-09-12T09:36:04;40.42;;;31.70;;
18899;SDS011;9582;52.018;6.306;2023-09-12T09:38:31;38.88;;;29.42;;
18899;SDS011;9582;52.018;6.306;2023-09-12T09:40:58;39.03;;;30.13;;
18899;SDS011;9582;52.018;6.306;2023-09-12T09:43:24;38.83;;;30.75;;
18899;SDS011;9582;52.018;6.306;2023-09-12T09:45:52;37.78;;;30.25;;
18899;SDS011;9582;52.018;6.306;2023-09-12T09:48:19;40.47;;;31.17;;
18899;SDS011;9582;52.018;6.306;2023-09-12T09:50:45;43.00;;;31.08;;
18899;SDS011;9582;52.018;6.306;2023-09-12T09:53:12;44.67;;;32.13;;
18899;SDS011;9582;52.018;6.306;2023-09-12T09:55:39;40.55;;;30.30;;
18899;SDS011;9582;52.018;6.306;2023-09-12T09:58:05;38.80;;;29.98;;
18899;SDS011;9582;52.018;6.306;2023-09-12T10:00:33;35.42;;;28.48;;
18899;SDS011;9582;52.018;6.306;2023-09-12T10:03:02;31.42;;;25.73;;
18899;SDS011;9582;52.018;6.306;2023-09-12T10:05:30;29.88;;;23.00;;
18899;SDS011;9582;52.018;6.306;2023-09-12T10:07:58;33.40;;;26.27;;
18899;SDS011;9582;52.018;6.306;2023-09-12T10:10:30;34.95;;;29.45;;
18899;SDS011;9582;52.018;6.306;2023-09-12T10:12:59;36.83;;;29.73;;
18899;SDS011;9582;52.018;6.306;2023-09-12T10:15:30;37.17;;;30.10;;
18899;SDS011;9582;52.018;6.306;2023-09-12T10:17:57;36.33;;;29.55;;
18899;SDS011;9582;52.018;6.306;2023-09-12T10:20:27;36.13;;;27.45;;
18899;SDS011;9582;52.018;6.306;2023-09-12T10:23:01;37.17;;;26.50;;
18899;SDS011;9582;52.018;6.306;2023-09-12T10:25:34;38.05;;;30.35;;
18899;SDS011;9582;52.018;6.306;2023-09-12T10:28:03;36.75;;;29.88;;
18899;SDS011;9582;52.018;6.306;2023-09-12T10:30:30;38.58;;;29.73;;
18899;SDS011;9582;52.018;6.306;2023-09-12T10:32:58;36.53;;;28.58;;
18899;SDS011;9582;52.018;6.306;2023-09-12T10:35:29;35.28;;;26.77;;
18899;SDS011;9582;52.018;6.306;2023-09-12T10:37:56;34.13;;;27.67;;
18899;SDS011;9582;52.018;6.306;2023-09-12T10:40:26;30.45;;;25.52;;
18899;SDS011;9582;52.018;6.306;2023-09-12T10:42:53;26.23;;;23.30;;
18899;SDS011;9582;52.018;6.306;2023-09-12T10:45:21;26.02;;;21.02;;
18899;SDS011;9582;52.018;6.306;2023-09-12T10:47:48;25.30;;;21.35;;
18899;SDS011;9582;52.018;6.306;2023-09-12T10:50:15;26.23;;;21.83;;
18899;SDS011;9582;52.018;6.306;2023-09-12T10:52:43;26.83;;;21.95;;
18899;SDS011;9582;52.018;6.306;2023-09-12T10:55:15;26.27;;;20.00;;
18899;SDS011;9582;52.018;6.306;2023-09-12T11:00:27;27.17;;;23.05;;
18899;SDS011;9582;52.018;6.306;2023-09-12T11:02:54;24.85;;;21.10;;
18899;SDS011;9582;52.018;6.306;2023-09-12T11:05:36;26.30;;;22.13;;
18899;SDS011;9582;52.018;6.306;2023-09-12T11:08:05;26.38;;;22.77;;
18899;SDS011;9582;52.018;6.306;2023-09-12T11:10:31;30.40;;;23.05;;
18899;SDS011;9582;52.018;6.306;2023-09-12T11:12:58;26.83;;;23.92;;
18899;SDS011;9582;52.018;6.306;2023-09-12T11:15:26;28.10;;;22.75;;
18899;SDS011;9582;52.018;6.306;2023-09-12T11:18:02;25.92;;;23.10;;
18899;SDS011;9582;52.018;6.306;2023-09-12T11:23:17;27.75;;;22.60;;
18899;SDS011;9582;52.018;6.306;2023-09-12T11:25:44;24.73;;;20.90;;
18899;SDS011;9582;52.018;6.306;2023-09-12T11:28:10;25.33;;;21.42;;
18899;SDS011;9582;52.018;6.306;2023-09-12T11:30:37;27.13;;;22.33;;
18899;SDS011;9582;52.018;6.306;2023-09-12T11:33:22;22.02;;;19.35;;
18899;SDS011;9582;52.018;6.306;2023-09-12T11:35:51;19.25;;;16.80;;
18899;SDS011;9582;52.018;6.306;2023-09-12T11:38:26;20.80;;;17.80;;
18899;SDS011;9582;52.018;6.306;2023-09-12T11:40:54;22.67;;;20.17;;
18899;SDS011;9582;52.018;6.306;2023-09-12T11:43:22;23.13;;;20.63;;
18899;SDS011;9582;52.018;6.306;2023-09-12T11:45:50;22.65;;;19.30;;
18899;SDS011;9582;52.018;6.306;2023-09-12T11:48:18;27.70;;;22.08;;
18899;SDS011;9582;52.018;6.306;2023-09-12T11:50:48;29.52;;;22.08;;
18899;SDS011;9582;52.018;6.306;2023-09-12T11:53:19;23.48;;;20.35;;
18899;SDS011;9582;52.018;6.306;2023-09-12T11:55:49;24.63;;;21.88;;
18899;SDS011;9582;52.018;6.306;2023-09-12T11:58:19;23.58;;;19.70;;
18899;SDS011;9582;52.018;6.306;2023-09-12T12:00:47;26.08;;;20.83;;
18899;SDS011;9582;52.018;6.306;2023-09-12T12:03:16;25.00;;;22.30;;
18899;SDS011;9582;52.018;6.306;2023-09-12T12:05:43;24.83;;;20.83;;
18899;SDS011;9582;52.018;6.306;2023-09-12T12:08:10;23.33;;;20.52;;
18899;SDS011;9582;52.018;6.306;2023-09-12T12:10:37;26.27;;;21.17;;
18899;SDS011;9582;52.018;6.306;2023-09-12T12:13:06;22.05;;;19.67;;
18899;SDS011;9582;52.018;6.306;2023-09-12T12:15:33;25.17;;;20.83;;
18899;SDS011;9582;52.018;6.306;2023-09-12T12:17:59;21.65;;;18.63;;
18899;SDS011;9582;52.018;6.306;2023-09-12T12:20:26;22.90;;;18.92;;
18899;SDS011;9582;52.018;6.306;2023-09-12T12:22:55;21.33;;;19.10;;
18899;SDS011;9582;52.018;6.306;2023-09-12T12:25:21;17.60;;;14.90;;
18899;SDS011;9582;52.018;6.306;2023-09-12T12:27:49;20.83;;;16.90;;
18899;SDS011;9582;52.018;6.306;2023-09-12T12:30:17;17.08;;;14.35;;
18899;SDS011;9582;52.018;6.306;2023-09-12T12:32:44;17.60;;;15.43;;
18899;SDS011;9582;52.018;6.306;2023-09-12T12:35:16;17.30;;;15.13;;
18899;SDS011;9582;52.018;6.306;2023-09-12T12:37:43;20.30;;;16.42;;
18899;SDS011;9582;52.018;6.306;2023-09-12T12:40:11;17.00;;;15.00;;
18899;SDS011;9582;52.018;6.306;2023-09-12T12:42:40;19.02;;;16.15;;
18899;SDS011;9582;52.018;6.306;2023-09-12T12:45:11;17.50;;;15.20;;
18899;SDS011;9582;52.018;6.306;2023-09-12T12:47:39;17.67;;;15.32;;
18899;SDS011;9582;52.018;6.306;2023-09-12T12:50:10;14.68;;;13.13;;
18899;SDS011;9582;52.018;6.306;2023-09-12T12:52:37;16.33;;;12.98;;
18899;SDS011;9582;52.018;6.306;2023-09-12T12:55:04;14.38;;;12.25;;
18899;SDS011;9582;52.018;6.306;2023-09-12T12:57:31;16.23;;;14.32;;
18899;SDS011;9582;52.018;6.306;2023-09-12T12:59:58;17.10;;;14.45;;
18899;SDS011;9582;52.018;6.306;2023-09-12T13:02:25;15.05;;;13.35;;
18899;SDS011;9582;52.018;6.306;2023-09-12T13:04:52;13.60;;;11.98;;
18899;SDS011;9582;52.018;6.306;2023-09-12T13:07:19;12.93;;;11.07;;
18899;SDS011;9582;52.018;6.306;2023-09-12T13:09:45;13.90;;;10.85;;
18899;SDS011;9582;52.018;6.306;2023-09-12T13:12:13;14.80;;;11.07;;
18899;SDS011;9582;52.018;6.306;2023-09-12T13:14:39;12.85;;;11.15;;
18899;SDS011;9582;52.018;6.306;2023-09-12T13:17:06;16.35;;;12.35;;
18899;SDS011;9582;52.018;6.306;2023-09-12T13:19:32;15.13;;;13.30;;
18899;SDS011;9582;52.018;6.306;2023-09-12T13:22:00;17.88;;;14.70;;
18899;SDS011;9582;52.018;6.306;2023-09-12T13:24:27;15.13;;;13.48;;
18899;SDS011;9582;52.018;6.306;2023-09-12T13:26:54;13.85;;;12.35;;
18899;SDS011;9582;52.018;6.306;2023-09-12T13:29:20;13.70;;;11.65;;
18899;SDS011;9582;52.018;6.306;2023-09-12T13:31:47;11.80;;;10.30;;
18899;SDS011;9582;52.018;6.306;2023-09-12T13:34:13;8.88;;;8.05;;
18899;SDS011;9582;52.018;6.306;2023-09-12T13:36:40;11.90;;;9.82;;
18899;SDS011;9582;52.018;6.306;2023-09-12T13:39:08;11.00;;;9.15;;
18899;SDS011;9582;52.018;6.306;2023-09-12T13:41:34;12.55;;;10.40;;
18899;SDS011;9582;52.018;6.306;2023-09-12T13:44:01;12.63;;;10.77;;
18899;SDS011;9582;52.018;6.306;2023-09-12T13:46:27;12.65;;;9.80;;
18899;SDS011;9582;52.018;6.306;2023-09-12T13:48:55;12.07;;;10.40;;
18899;SDS011;9582;52.018;6.306;2023-09-12T13:51:25;13.13;;;10.85;;
18899;SDS011;9582;52.018;6.306;2023-09-12T13:53:52;11.95;;;10.05;;
18899;SDS011;9582;52.018;6.306;2023-09-12T13:56:19;12.90;;;10.73;;
18899;SDS011;9582;52.018;6.306;2023-09-12T13:58:46;10.15;;;9.07;;
18899;SDS011;9582;52.018;6.306;2023-09-12T14:01:12;11.73;;;10.05;;
18899;SDS011;9582;52.018;6.306;2023-09-12T14:03:39;14.13;;;9.75;;
18899;SDS011;9582;52.018;6.306;2023-09-12T14:06:05;10.68;;;9.52;;
18899;SDS011;9582;52.018;6.306;2023-09-12T14:08:32;9.25;;;7.95;;
18899;SDS011;9582;52.018;6.306;2023-09-12T14:10:58;8.80;;;7.90;;
18899;SDS011;9582;52.018;6.306;2023-09-12T14:13:26;9.02;;;8.10;;
18899;SDS011;9582;52.018;6.306;2023-09-12T14:15:52;7.85;;;7.05;;
18899;SDS011;9582;52.018;6.306;2023-09-12T14:18:19;7.00;;;6.30;;
18899;SDS011;9582;52.018;6.306;2023-09-12T14:20:46;7.75;;;6.95;;
18899;SDS011;9582;52.018;6.306;2023-09-12T14:23:12;7.50;;;6.00;;
18899;SDS011;9582;52.018;6.306;2023-09-12T14:25:39;9.30;;;6.10;;
18899;SDS011;9582;52.018;6.306;2023-09-12T14:28:05;6.78;;;6.07;;
18899;SDS011;9582;52.018;6.306;2023-09-12T14:30:33;8.32;;;5.88;;
18899;SDS011;9582;52.018;6.306;2023-09-12T14:33:01;6.47;;;5.80;;
18899;SDS011;9582;52.018;6.306;2023-09-12T14:35:28;9.05;;;6.93;;
18899;SDS011;9582;52.018;6.306;2023-09-12T14:37:55;10.63;;;7.75;;
18899;SDS011;9582;52.018;6.306;2023-09-12T14:40:21;9.27;;;6.68;;